createdAt,value
2018-04-25T03:01:07.064Z,83.32
2018-04-25T03:02:07.971Z,83.32
2018-04-25T03:03:07.596Z,82.37
2018-04-25T03:04:07.152Z,82.18
2018-04-25T03:05:07.512Z,82.46
2018-04-25T03:06:07.675Z,82.69
2018-04-25T03:07:07.742Z,82.08
2018-04-25T03:08:11.219Z,82.21
2018-04-25T03:09:09.319Z,81.55
2018-04-25T03:10:08.111Z,80.98
2018-04-25T03:12:08.616Z,80.31
2018-04-25T03:13:09.149Z,80.31
2018-04-25T03:14:08.996Z,80.02
2018-04-25T03:15:09.388Z,80.02
2018-04-25T03:16:09.387Z,79.93
2018-04-25T03:17:09.475Z,79.68
2018-04-25T03:18:10.796Z,79.78
2018-04-25T03:19:10.712Z,79.88
2018-04-25T03:20:10.052Z,79.49
2018-04-25T03:21:08.679Z,80.07
2018-04-25T03:22:08.053Z,80.07
2018-04-25T03:23:08.353Z,79.49
2018-04-25T03:24:08.545Z,78.92
2018-04-25T03:25:08.531Z,78.92
2018-04-25T03:26:08.945Z,78.73
2018-04-25T03:27:08.906Z,79.21
2018-04-25T03:28:09.037Z,78.73
2018-04-25T03:29:09.248Z,79.21
2018-04-25T03:30:09.506Z,78.35
2018-04-25T03:31:09.580Z,78.06
2018-04-25T03:32:09.735Z,77.97
2018-04-25T03:33:09.949Z,77.87
2018-04-25T03:34:10.557Z,77.87
2018-04-25T03:35:10.331Z,77.62
2018-04-25T03:36:10.586Z,77.62
2018-04-25T03:37:10.709Z,77.62
2018-04-25T03:38:10.930Z,77.62
2018-04-25T03:39:11.221Z,77.53
2018-04-25T03:40:11.350Z,77.25
2018-04-25T03:41:11.650Z,77.25
2018-04-25T03:42:11.764Z,77.06
2018-04-25T03:43:11.955Z,77.15
2018-04-25T03:44:12.225Z,77.72
2018-04-25T03:45:12.487Z,77.44
2018-04-25T03:46:12.447Z,77.34
2018-04-25T03:47:12.747Z,76.96
2018-04-25T03:48:12.824Z,76.86
2018-04-25T03:49:12.990Z,76.57
2018-04-25T03:50:13.343Z,76.10
2018-04-25T03:51:13.622Z,76.29
2018-04-25T03:52:13.681Z,76.62
2018-04-25T03:53:13.771Z,76.62
2018-04-25T03:54:14.009Z,76.33
2018-04-25T03:55:14.073Z,76.42
2018-04-25T03:56:14.276Z,75.57
2018-04-25T03:57:14.507Z,75.57
2018-04-25T03:58:14.719Z,75.18
2018-04-25T03:59:14.782Z,75.15
2018-04-25T04:00:15.285Z,75.43
2018-04-25T04:01:15.117Z,75.72
2018-04-25T04:02:15.256Z,75.85
2018-04-25T04:03:15.465Z,75.37
2018-04-25T04:04:15.607Z,75.37
2018-04-25T04:05:15.865Z,75.18
2018-04-25T04:06:16.000Z,74.90
2018-04-25T04:07:16.211Z,74.90
2018-04-25T04:08:16.379Z,75.18
2018-04-25T04:09:16.526Z,74.71
2018-04-25T04:10:16.658Z,74.80
2018-04-25T04:11:16.877Z,74.61
2018-04-25T04:12:16.997Z,74.52
2018-04-25T04:13:17.035Z,74.99
2018-04-25T04:14:17.273Z,74.61
2018-04-25T04:15:17.361Z,74.13
2018-04-25T04:16:17.577Z,74.90
2018-04-25T04:17:17.733Z,75.09
2018-04-25T04:18:17.901Z,74.74
2018-04-25T04:19:18.000Z,75.09
2018-04-25T04:20:18.221Z,74.61
2018-04-25T04:21:18.378Z,74.71
2018-04-25T04:22:18.510Z,74.52
2018-04-25T04:23:18.747Z,74.42
2018-04-25T04:24:18.914Z,75.13
2018-04-25T04:25:19.001Z,75.60
2018-04-25T04:26:19.240Z,75.37
2018-04-25T04:27:19.408Z,74.42
2018-04-25T04:28:19.637Z,74.37
2018-04-25T04:29:19.741Z,74.46
2018-04-25T04:30:19.835Z,74.27
2018-04-25T04:31:19.974Z,73.60
2018-04-25T04:32:20.206Z,73.50
2018-04-25T04:33:20.440Z,73.12
2018-04-25T04:34:20.574Z,73.69
2018-04-25T04:35:20.754Z,73.03
2018-04-25T04:36:20.975Z,72.93
2018-04-25T04:37:21.064Z,72.07
2018-04-25T04:38:21.239Z,71.98
2018-04-25T04:39:21.419Z,71.78
2018-04-25T04:40:21.577Z,72.49
2018-04-25T04:41:21.869Z,72.58
2018-04-25T04:42:21.937Z,72.87
2018-04-25T04:43:22.077Z,73.54
2018-04-25T04:44:22.263Z,72.87
2018-04-25T04:45:22.504Z,72.49
2018-04-25T04:46:22.618Z,72.30
2018-04-25T04:47:22.784Z,72.11
2018-04-25T04:48:22.957Z,71.82
2018-04-25T04:49:23.162Z,71.82
2018-04-25T04:50:23.243Z,71.92
2018-04-25T04:51:24.320Z,71.44
2018-04-25T04:52:23.751Z,71.82
2018-04-25T04:53:23.768Z,72.20
2018-04-25T04:54:24.207Z,71.53
2018-04-25T04:55:24.507Z,70.67
2018-04-25T04:58:29.614Z,70.33
2018-04-25T04:59:22.418Z,69.76
2018-04-25T05:00:23.500Z,69.95
2018-04-25T05:01:20.352Z,70.23
2018-04-25T05:02:21.899Z,69.47
2018-04-25T05:03:20.921Z,69.18
2018-04-25T05:04:21.070Z,69.76
2018-04-25T05:05:20.431Z,69.47
2018-04-25T05:06:22.573Z,69.09
2018-04-25T05:07:20.273Z,68.16
2018-04-25T05:08:18.647Z,67.88
2018-04-25T05:09:18.720Z,67.59
2018-04-25T05:10:19.227Z,68.07
2018-04-25T05:11:19.545Z,68.16
2018-04-25T05:14:32.990Z,68.16
2018-04-25T05:15:23.866Z,68.35
2018-04-25T05:16:24.308Z,68.26
2018-04-25T05:17:23.831Z,68.93
2018-04-25T05:18:24.330Z,68.55
2018-04-25T05:19:24.483Z,69.31
2018-04-25T05:20:24.777Z,68.84
2018-04-25T05:21:24.872Z,69.02
2018-04-25T05:22:23.319Z,69.12
2018-04-25T05:23:22.858Z,68.35
2018-04-25T05:24:23.056Z,68.35
2018-04-25T05:25:23.184Z,67.78
2018-04-25T05:26:23.135Z,68.26
2018-04-25T05:27:23.256Z,67.78
2018-04-25T05:28:23.392Z,68.35
2018-04-25T05:29:23.709Z,68.45
2018-04-25T05:30:34.990Z,69.41
2018-04-25T05:31:33.751Z,68.84
2018-04-25T05:37:11.298Z,67.88
2018-04-25T05:38:11.508Z,67.97
2018-04-25T05:39:11.855Z,68.84
2018-04-25T05:40:13.039Z,69.02
2018-04-25T05:41:12.475Z,67.91
2018-04-25T05:42:12.377Z,67.82
2018-04-25T05:43:12.781Z,67.14
2018-04-25T05:44:13.348Z,66.28
2018-04-25T05:46:34.259Z,66.28
2018-04-25T05:47:13.031Z,66.41
2018-04-25T05:48:13.419Z,67.37
2018-04-25T05:49:13.817Z,66.80
2018-04-25T05:50:14.427Z,66.22
2018-04-25T05:51:14.460Z,66.41
2018-04-25T05:52:14.355Z,67.18
2018-04-25T05:53:14.097Z,66.89
2018-04-25T05:54:14.513Z,66.61
2018-04-25T05:55:14.395Z,67.66
2018-04-25T05:56:15.470Z,66.83
2018-04-25T05:57:14.737Z,66.22
2018-04-25T05:58:12.764Z,65.20
2018-04-25T05:59:12.976Z,64.98
2018-04-25T06:00:13.277Z,65.08
2018-04-25T06:01:13.252Z,65.17
2018-04-25T06:02:13.373Z,64.98
2018-04-25T06:04:26.038Z,65.97
2018-04-25T06:05:17.468Z,65.30
2018-04-25T06:11:02.763Z,66.41
2018-04-25T06:12:16.377Z,67.94
2018-04-25T06:12:59.120Z,66.70
2018-04-25T06:13:59.866Z,66.51
2018-04-25T06:14:59.695Z,66.99
2018-04-25T06:15:59.741Z,67.27
2018-04-25T06:16:59.942Z,66.93
2018-04-25T06:18:01.837Z,66.25
2018-04-25T06:19:02.655Z,66.74
2018-04-25T06:21:00.855Z,66.06
2018-04-25T06:22:00.326Z,65.97
2018-04-25T06:22:59.308Z,66.06
2018-04-25T06:23:59.095Z,66.06
2018-04-25T06:24:59.144Z,65.49
2018-04-25T06:25:59.228Z,66.41
2018-04-25T06:27:03.484Z,65.74
2018-04-25T06:27:59.370Z,65.94
2018-04-25T06:28:59.552Z,66.03
2018-04-25T06:29:59.743Z,66.32
2018-04-25T06:30:59.809Z,66.51
2018-04-25T06:32:00.025Z,66.70
2018-04-25T06:33:00.208Z,66.89
2018-04-25T06:34:00.367Z,66.70
2018-04-25T06:35:00.491Z,66.32
2018-04-25T06:36:00.653Z,66.41
2018-04-25T06:37:00.830Z,66.80
2018-04-25T06:38:00.982Z,66.61
2018-04-25T06:39:01.194Z,67.27
2018-04-25T06:40:01.330Z,67.76
2018-04-25T06:41:01.444Z,67.31
2018-04-25T06:42:01.659Z,66.83
2018-04-25T06:43:01.783Z,67.69
2018-04-25T06:44:01.995Z,66.83
2018-04-25T06:45:02.169Z,66.16
2018-04-25T06:46:03.026Z,66.54
2018-04-25T06:47:02.656Z,66.54
2018-04-25T06:48:02.842Z,66.54
2018-04-25T06:49:05.233Z,66.93
2018-04-25T06:50:02.950Z,67.11
2018-04-25T06:51:03.183Z,66.83
2018-04-25T06:52:03.318Z,66.74
2018-04-25T06:53:03.538Z,67.79
2018-04-25T06:54:03.598Z,67.69
2018-04-25T06:55:03.836Z,67.98
2018-04-25T06:56:03.972Z,67.50
2018-04-25T06:57:04.127Z,66.74
2018-04-25T06:58:04.443Z,66.64
2018-04-25T07:00:49.584Z,66.35
2018-04-25T07:04:20.012Z,66.45
2018-04-25T07:05:08.916Z,66.06
2018-04-25T07:06:16.592Z,66.06
2018-04-25T07:07:08.683Z,65.88
2018-04-25T07:08:08.935Z,66.35
2018-04-25T07:09:09.425Z,66.64
2018-04-25T07:10:09.683Z,67.69
2018-04-25T07:13:19.691Z,67.50
2018-04-25T07:14:09.843Z,67.50
2018-04-25T07:15:11.037Z,67.02
2018-04-25T07:16:10.505Z,66.74
2018-04-25T07:17:11.231Z,66.93
2018-04-25T07:18:19.010Z,67.50
2018-04-25T07:19:10.767Z,66.93
2018-04-25T07:20:12.933Z,67.02
2018-04-25T07:21:13.874Z,67.88
2018-04-25T07:22:11.267Z,67.88
2018-04-25T07:23:13.320Z,66.83
2018-04-25T07:24:12.550Z,66.35
2018-04-25T07:25:14.859Z,66.54
2018-04-25T07:26:11.743Z,66.54
2018-04-25T07:31:31.545Z,66.74
2018-04-25T07:32:39.248Z,67.41
2018-04-25T07:36:22.783Z,66.83
2018-04-25T07:40:56.506Z,66.45
2018-04-25T07:41:48.761Z,65.78
2018-04-25T07:45:54.805Z,66.38
2018-04-25T07:46:55.809Z,66.29
2018-04-25T07:48:03.484Z,65.33
2018-04-25T07:48:55.695Z,65.33
2018-04-25T07:51:07.479Z,65.62
2018-04-25T07:51:55.898Z,65.33
2018-04-25T07:52:56.320Z,64.66
2018-04-25T07:53:58.312Z,64.85
2018-04-25T07:54:56.397Z,64.98
2018-04-25T07:56:01.111Z,64.98
2018-04-25T07:58:40.565Z,64.59
2018-04-25T07:59:40.893Z,63.35
2018-04-25T08:00:41.101Z,63.73
2018-04-25T08:01:41.674Z,64.02
2018-04-25T08:02:41.863Z,63.92
2018-04-25T08:04:52.882Z,64.59
2018-04-25T08:05:42.978Z,63.38
2018-04-25T08:06:50.762Z,63.09
2018-04-25T08:07:42.852Z,62.81
2018-04-25T08:08:42.629Z,62.81
2018-04-25T08:09:43.173Z,63.09
2018-04-25T08:10:43.211Z,63.76
2018-04-25T08:11:43.728Z,62.71
2018-04-25T08:12:43.272Z,62.90
2018-04-25T08:13:45.151Z,61.66
2018-04-25T08:14:44.812Z,60.35
2018-04-25T08:15:46.289Z,60.08
2018-04-25T08:16:44.847Z,58.80
2018-04-25T08:17:42.588Z,56.33
2018-04-25T08:22:21.142Z,53.53
2018-04-25T08:24:50.341Z,49.73
2018-04-25T08:25:49.320Z,49.82
2018-04-25T08:26:49.575Z,50.01
2018-04-25T08:27:49.293Z,48.11
2018-04-25T08:28:49.405Z,48.79
2018-04-25T08:29:49.927Z,46.95
2018-04-25T08:30:49.976Z,47.44
2018-04-25T08:31:51.897Z,47.07
2018-04-25T08:32:50.786Z,47.07
2018-04-25T08:33:51.776Z,47.72
2018-04-25T08:34:50.829Z,47.80
2018-04-25T08:35:48.577Z,50.25
2018-04-25T08:36:48.786Z,50.32
2018-04-25T08:37:48.966Z,52.12
2018-04-25T08:38:49.118Z,53.54
2018-04-25T08:39:49.324Z,53.42
2018-04-25T08:40:49.477Z,55.89
2018-04-25T08:41:49.663Z,57.62
2018-04-25T08:42:49.783Z,57.90
2018-04-25T08:43:51.759Z,56.92
2018-04-25T08:46:25.302Z,58.33
2018-04-25T08:47:25.852Z,58.04
2018-04-25T08:48:28.124Z,58.49
2018-04-25T08:49:24.204Z,60.03
2018-04-25T08:50:23.852Z,60.03
2018-04-25T08:51:24.048Z,59.74
2018-04-25T08:52:24.215Z,60.22
2018-04-25T08:53:24.374Z,60.19
2018-04-25T08:54:24.573Z,60.28
2018-04-25T08:55:24.645Z,60.38
2018-04-25T08:56:24.812Z,60.86
2018-04-25T08:57:25.038Z,61.08
2018-04-25T08:58:25.182Z,60.50
2018-04-25T08:59:25.697Z,59.74
2018-04-25T09:00:37.610Z,60.05
2018-04-25T09:01:28.211Z,59.67
2018-04-25T09:02:28.069Z,59.96
2018-04-25T09:03:28.304Z,59.45
2018-04-25T09:04:28.468Z,59.16
2018-04-25T09:05:28.580Z,60.12
2018-04-25T09:06:28.519Z,60.22
2018-04-25T09:08:29.396Z,60.12
2018-04-25T09:09:29.880Z,60.19
2018-04-25T09:10:28.965Z,60.57
2018-04-25T09:11:27.393Z,61.02
2018-04-25T09:12:27.540Z,60.76
2018-04-25T09:13:27.678Z,61.63
2018-04-25T09:14:28.133Z,61.69
2018-04-25T09:15:28.022Z,60.54
2018-04-25T09:16:28.274Z,61.50
2018-04-25T09:17:28.625Z,61.69
2018-04-25T09:18:28.720Z,61.69
2018-04-25T09:19:28.862Z,63.13
2018-04-25T09:20:29.172Z,62.93
2018-04-25T09:21:29.201Z,61.88
2018-04-25T09:22:29.312Z,61.34
2018-04-25T09:23:29.512Z,60.96
2018-04-25T09:24:29.690Z,60.28
2018-04-25T09:25:29.809Z,61.05
2018-04-25T09:26:30.003Z,60.47
2018-04-25T09:27:30.488Z,60.38
2018-04-25T09:28:30.538Z,60.96
2018-04-25T09:29:30.655Z,60.28
2018-04-25T09:30:30.771Z,60.60
2018-04-25T09:31:30.800Z,60.67
2018-04-25T09:32:33.261Z,60.76
2018-04-25T09:33:31.313Z,61.63
2018-04-25T09:34:31.562Z,62.77
2018-04-25T09:35:31.869Z,61.43
2018-04-25T09:36:31.867Z,61.53
2018-04-25T09:37:32.016Z,60.86
2018-04-25T09:38:32.328Z,60.86
2018-04-25T09:39:32.538Z,61.72
2018-04-25T09:40:32.559Z,62.84
2018-04-25T09:41:32.729Z,61.69
2018-04-25T09:42:32.970Z,61.98
2018-04-25T09:43:35.563Z,63.13
2018-04-25T09:44:33.539Z,63.32
2018-04-25T09:45:33.612Z,63.13
2018-04-25T09:46:33.533Z,62.17
2018-04-25T09:47:33.760Z,62.07
2018-04-25T09:48:33.915Z,62.17
2018-04-25T09:49:34.485Z,62.84
2018-04-25T09:50:34.192Z,62.46
2018-04-25T09:51:34.311Z,62.84
2018-04-25T09:52:34.508Z,62.65
2018-04-25T09:53:34.769Z,63.80
2018-04-25T09:54:34.974Z,63.42
2018-04-25T09:55:34.940Z,63.32
2018-04-25T09:56:35.117Z,62.65
2018-04-25T09:57:35.427Z,63.70
2018-04-25T09:58:35.452Z,63.35
2018-04-25T09:59:35.668Z,62.01
2018-04-25T10:00:35.896Z,62.13
2018-04-25T10:01:36.514Z,61.11
2018-04-25T10:02:36.205Z,60.75
2018-04-25T10:03:36.701Z,58.77
2018-04-25T10:04:36.534Z,58.00
2018-04-25T10:05:38.442Z,57.81
2018-04-25T10:06:36.856Z,57.93
2018-04-25T10:07:37.106Z,56.68
2018-04-25T10:08:37.779Z,55.76
2018-04-25T10:09:37.677Z,56.81
2018-04-25T10:10:37.543Z,56.23
2018-04-25T10:11:38.109Z,54.31
2018-04-25T10:12:37.886Z,54.22
2018-04-25T10:13:37.909Z,55.53
2018-04-25T10:14:40.575Z,56.21
2018-04-25T10:15:40.979Z,55.89
2018-04-25T10:16:38.649Z,56.01
2018-04-25T10:17:38.665Z,55.44
2018-04-25T10:18:38.802Z,55.22
2018-04-25T10:19:39.586Z,55.89
2018-04-25T10:20:39.095Z,56.18
2018-04-25T10:21:40.198Z,56.88
2018-04-25T10:22:39.520Z,55.32
2018-04-25T10:23:39.636Z,55.99
2018-04-25T10:24:39.807Z,57.81
2018-04-25T10:25:40.292Z,58.20
2018-04-25T10:26:40.554Z,58.20
2018-04-25T10:27:40.445Z,58.39
2018-04-25T10:28:40.789Z,56.56
2018-04-25T10:29:41.262Z,56.34
2018-04-25T10:30:40.991Z,55.86
2018-04-25T10:31:41.186Z,56.24
2018-04-25T10:32:41.249Z,56.34
2018-04-25T10:33:41.536Z,57.40
2018-04-25T10:34:41.557Z,56.53
2018-04-25T10:35:41.782Z,55.77
2018-04-25T10:36:42.713Z,56.79
2018-04-25T10:38:42.490Z,59.09
2018-04-25T10:39:42.407Z,57.95
2018-04-25T10:40:42.645Z,58.04
2018-04-25T10:41:44.232Z,58.42
2018-04-25T10:42:43.198Z,59.19
2018-04-25T10:43:43.154Z,58.42
2018-04-25T10:44:43.978Z,58.04
2018-04-25T10:45:43.528Z,58.64
2018-04-25T10:46:43.645Z,58.87
2018-04-25T10:47:43.962Z,56.81
2018-04-25T10:48:44.007Z,53.78
2018-04-25T10:49:44.235Z,50.01
2018-04-25T10:50:44.317Z,48.88
2018-04-25T10:51:44.709Z,47.14
2018-04-25T10:52:46.421Z,46.83
2018-04-25T10:53:45.041Z,47.51
2018-04-25T10:54:45.075Z,50.18
2018-04-25T10:55:46.068Z,50.45
2018-04-25T10:56:45.372Z,51.07
2018-04-25T10:57:45.601Z,52.97
2018-04-25T10:58:46.117Z,53.32
2018-04-25T10:59:45.869Z,53.97
2018-04-25T11:00:46.035Z,55.38
2018-04-25T11:01:46.195Z,56.60
2018-04-25T11:02:46.400Z,58.91
2018-04-25T11:03:46.578Z,61.75
2018-04-25T11:04:46.703Z,63.67
2018-04-25T11:05:46.883Z,64.89
2018-04-25T11:06:47.083Z,66.96
2018-04-25T11:07:47.362Z,69.35
2018-04-25T11:08:47.662Z,69.60
2018-04-25T11:09:47.529Z,71.62
2018-04-25T11:10:49.745Z,71.62
2018-04-25T11:11:48.148Z,72.92
2018-04-25T11:12:48.070Z,74.65
2018-04-25T11:13:48.438Z,76.56
2018-04-25T11:14:48.801Z,77.23
2018-04-25T11:15:48.596Z,76.18
2018-04-25T11:16:49.652Z,77.13
2018-04-25T11:17:49.004Z,78.24
2018-04-25T11:18:49.054Z,79.52
2018-04-25T11:19:49.540Z,79.52
2018-04-25T11:20:49.885Z,79.52
2018-04-25T11:21:49.604Z,78.22
2018-04-25T11:22:49.919Z,76.50
2018-04-25T11:23:49.883Z,75.77
2018-04-25T11:24:50.132Z,76.35
2018-04-25T11:25:50.555Z,74.83
2018-04-25T11:26:50.487Z,72.72
2018-04-25T11:27:50.707Z,72.43
2018-04-25T11:28:50.731Z,71.76
2018-04-25T11:29:50.906Z,71.25
2018-04-25T11:30:51.052Z,71.21
2018-04-25T11:31:51.353Z,71.88
2018-04-25T11:32:51.449Z,71.78
2018-04-25T11:33:51.582Z,73.66
2018-04-25T11:34:51.694Z,73.19
2018-04-25T11:35:51.911Z,76.73
2018-04-25T11:36:52.342Z,74.58
2018-04-25T11:37:52.303Z,76.60
2018-04-25T11:38:52.395Z,75.45
2018-04-25T11:39:52.624Z,76.12
2018-04-25T11:40:52.782Z,76.21
2018-04-25T11:41:52.931Z,76.73
2018-04-25T11:42:53.126Z,76.44
2018-04-25T11:43:53.310Z,74.72
2018-04-25T11:44:53.480Z,73.45
2018-04-25T11:45:53.617Z,72.16
2018-04-25T11:46:53.740Z,66.94
2018-04-25T11:47:53.918Z,63.73
2018-04-25T11:48:54.123Z,61.90
2018-04-25T11:49:54.270Z,62.29
2018-04-25T11:50:54.418Z,61.65
2018-04-25T11:51:54.590Z,59.91
2018-04-25T11:52:54.829Z,59.97
2018-04-25T11:53:54.952Z,59.10
2018-04-25T11:54:55.161Z,60.22
2018-04-25T11:55:55.189Z,59.23
2018-04-25T11:56:55.380Z,59.30
2018-04-25T11:57:55.729Z,58.56
2018-04-25T11:58:55.728Z,60.00
2018-04-25T11:59:55.930Z,59.84
2018-04-25T12:00:56.214Z,59.36
2018-04-25T12:01:56.330Z,56.98
2018-04-25T12:02:56.473Z,54.36
2018-04-25T12:03:56.603Z,51.97
2018-04-25T12:04:56.819Z,53.64
2018-04-25T12:05:57.021Z,51.23
2018-04-25T12:06:57.213Z,51.25
2018-04-25T12:07:57.530Z,52.36
2018-04-25T12:08:57.590Z,48.88
2018-04-25T12:09:57.731Z,48.30
2018-04-25T12:10:57.925Z,49.37
2018-04-25T12:11:58.136Z,49.44
2018-04-25T12:12:58.267Z,52.84
2018-04-25T12:13:58.452Z,49.92
2018-04-25T12:14:58.568Z,52.50
2018-04-25T12:15:58.881Z,55.40
2018-04-25T12:16:58.928Z,54.31
2018-04-25T12:17:59.186Z,54.35
2018-04-25T12:18:59.353Z,55.09
2018-04-25T12:19:59.553Z,58.53
2018-04-25T12:20:59.710Z,59.56
2018-04-25T12:21:59.933Z,56.67
2018-04-25T12:23:00.033Z,56.74
2018-04-25T12:24:00.198Z,60.08
2018-04-25T12:25:00.502Z,60.46
2018-04-25T12:26:00.530Z,60.63
2018-04-25T12:27:00.692Z,62.81
2018-04-25T12:28:00.857Z,64.82
2018-04-25T12:29:01.053Z,62.96
2018-04-25T12:30:01.283Z,64.59
2018-04-25T12:31:01.472Z,65.72
2018-04-25T12:32:01.624Z,64.09
2018-04-25T12:33:01.797Z,66.58
2018-04-25T12:34:02.014Z,67.92
2018-04-25T12:35:02.098Z,68.21
2018-04-25T12:36:02.290Z,68.12
2018-04-25T12:37:02.436Z,67.25
2018-04-25T12:38:02.621Z,67.83
2018-04-25T12:39:02.735Z,65.43
2018-04-25T12:40:02.936Z,65.43
2018-04-25T12:41:03.108Z,64.12
2018-04-25T12:42:03.338Z,62.64
2018-04-25T12:43:03.538Z,60.56
2018-04-25T12:44:03.718Z,61.46
2018-04-25T12:45:03.832Z,61.94
2018-04-25T12:46:06.492Z,60.69
2018-04-25T12:47:04.214Z,60.49
2018-04-25T12:48:04.349Z,60.46
2018-04-25T12:49:04.518Z,60.82
2018-04-25T12:50:04.625Z,60.14
2018-04-25T12:51:04.785Z,60.43
2018-04-25T12:52:04.986Z,63.12
2018-04-25T12:53:05.254Z,63.02
2018-04-25T12:54:05.355Z,62.87
2018-04-25T12:55:05.480Z,60.66
2018-04-25T12:56:05.683Z,61.30
2018-04-25T12:57:05.870Z,61.11
2018-04-25T12:58:06.035Z,63.12
2018-04-25T12:59:06.219Z,60.98
2018-04-25T13:00:06.369Z,63.09
2018-04-25T13:01:06.497Z,63.16
2018-04-25T13:02:06.697Z,64.12
2018-04-25T13:03:06.821Z,64.02
2018-04-25T13:04:06.920Z,63.16
2018-04-25T13:05:07.170Z,62.58
2018-04-25T13:06:07.355Z,64.56
2018-04-25T13:07:07.467Z,66.67
2018-04-25T13:08:07.665Z,66.90
2018-04-25T13:09:07.882Z,65.81
2018-04-25T13:10:07.982Z,64.09
2018-04-25T13:11:08.179Z,64.18
2018-04-25T13:12:08.349Z,65.14
2018-04-25T13:13:08.496Z,66.19
2018-04-25T13:14:08.678Z,66.00
2018-04-25T13:15:08.955Z,67.83
2018-04-25T13:16:09.090Z,67.63
2018-04-25T13:17:09.200Z,65.14
2018-04-25T13:18:09.477Z,66.00
2018-04-25T13:19:09.626Z,66.49
2018-04-25T13:20:11.440Z,65.91
2018-04-25T13:21:11.762Z,65.11
2018-04-25T13:22:10.102Z,64.82
2018-04-25T13:23:10.223Z,66.64
2018-04-25T13:24:10.420Z,68.37
2018-04-25T13:25:10.649Z,67.32
2018-04-25T13:26:10.731Z,67.02
2018-04-25T13:27:11.116Z,67.79
2018-04-25T13:28:11.227Z,68.18
2018-04-25T13:29:12.367Z,66.74
2018-04-25T13:30:12.151Z,68.21
2018-04-25T13:31:12.380Z,69.07
2018-04-25T13:32:12.948Z,65.20
2018-04-25T13:33:14.475Z,66.26
2018-04-25T13:34:12.253Z,68.37
2018-04-25T13:35:12.425Z,66.55
2018-04-25T13:36:12.589Z,67.44
2018-04-25T13:37:12.742Z,66.86
2018-04-25T13:38:14.784Z,64.12
2018-04-25T13:39:13.099Z,62.39
2018-04-25T13:40:13.295Z,61.43
2018-04-25T13:41:13.650Z,62.99
2018-04-25T13:42:15.515Z,60.78
2018-04-25T13:43:15.017Z,61.49
2018-04-25T13:46:54.093Z,60.46
2018-04-25T13:49:50.050Z,55.04
2018-04-25T13:50:40.019Z,55.04
2018-04-25T13:51:48.616Z,55.07
2018-04-25T13:52:40.233Z,52.55
2018-04-25T13:54:40.501Z,52.04
2018-04-25T13:55:42.154Z,51.29
2018-04-25T13:56:43.935Z,48.93
2018-04-25T13:57:43.216Z,47.53
2018-04-25T13:58:40.140Z,48.16
2018-04-25T13:59:39.175Z,47.36
2018-04-25T14:00:39.420Z,45.69
2018-04-25T14:01:40.060Z,44.50
2018-04-25T14:02:49.401Z,46.49
2018-04-25T14:03:42.049Z,45.55
2018-04-25T14:04:42.514Z,46.28
2018-04-25T14:05:42.389Z,49.43
2018-04-25T14:06:50.892Z,53.65
2018-04-25T14:07:44.879Z,54.58
2018-04-25T14:08:43.586Z,52.83
2018-04-25T14:09:44.183Z,53.50
2018-04-25T14:10:44.177Z,53.33
2018-04-25T14:11:43.784Z,53.02
2018-04-25T14:12:43.787Z,54.46
2018-04-25T14:13:44.584Z,54.49
2018-04-25T14:14:44.176Z,53.31
2018-04-25T14:15:45.224Z,54.05
2018-04-25T14:16:48.508Z,55.85
2018-04-25T14:17:44.666Z,56.52
2018-04-25T14:18:57.373Z,57.07
2018-04-25T14:19:46.367Z,57.84
2018-04-25T14:23:23.971Z,60.28
2018-04-25T14:24:07.293Z,59.51
2018-04-25T14:25:07.612Z,60.47
2018-04-25T14:26:07.218Z,61.11
2018-04-25T14:27:07.586Z,61.14
2018-04-25T14:28:07.709Z,61.05
2018-04-25T14:29:08.024Z,61.43
2018-04-25T14:30:08.522Z,58.17
2018-04-25T14:31:08.395Z,56.63
2018-04-25T14:32:06.828Z,56.34
2018-04-25T14:33:07.276Z,56.15
2018-04-25T14:34:06.329Z,56.82
2018-04-25T14:35:06.606Z,56.73
2018-04-25T14:36:06.686Z,54.78
2018-04-25T14:37:06.988Z,51.90
2018-04-25T14:38:07.097Z,50.56
2018-04-25T14:39:08.757Z,51.90
2018-04-25T14:42:31.839Z,56.70
2018-04-25T14:43:32.162Z,54.01
2018-04-25T14:44:34.593Z,54.30
2018-04-25T14:45:32.470Z,52.28
2018-04-25T14:46:32.953Z,49.74
2018-04-25T14:47:33.040Z,49.93
2018-04-25T14:48:33.661Z,49.55
2018-04-25T14:49:33.065Z,47.36
2018-04-25T14:50:33.706Z,45.39
2018-04-25T14:51:33.671Z,42.46
2018-04-25T14:53:42.518Z,40.80
2018-04-25T14:54:43.970Z,41.02
2018-04-25T14:55:35.152Z,39.09
2018-04-25T14:56:41.189Z,39.53
2018-04-25T14:57:35.975Z,39.16
2018-04-25T14:58:36.168Z,37.35
2018-04-25T15:00:53.421Z,38.81
2018-04-25T15:01:35.986Z,38.16
2018-04-25T15:02:35.571Z,36.94
2018-04-25T15:03:42.336Z,35.49
2018-04-25T15:04:39.521Z,36.05
2018-04-25T15:05:37.169Z,35.14
2018-04-25T15:06:39.327Z,35.74
2018-04-25T15:09:18.016Z,33.14
2018-04-25T15:10:21.087Z,33.87
2018-04-25T15:11:27.757Z,36.85
2018-04-25T15:12:18.027Z,38.45
2018-04-25T15:13:17.850Z,39.49
2018-04-25T15:14:20.163Z,41.66
2018-04-25T15:15:18.061Z,43.78
2018-04-25T15:16:18.710Z,42.12
2018-04-25T15:17:25.116Z,43.54
2018-04-25T15:18:21.107Z,43.84
2018-04-25T15:19:19.782Z,44.79
2018-04-25T15:20:19.482Z,44.29
2018-04-25T15:21:20.047Z,44.87
2018-04-25T15:22:23.401Z,46.98
2018-04-25T15:23:20.053Z,46.89
2018-04-25T15:24:17.830Z,44.87
2018-04-25T15:25:17.772Z,44.96
2018-04-25T15:26:18.625Z,44.38
2018-04-25T15:27:18.007Z,45.23
2018-04-25T15:28:18.208Z,45.32
2018-04-25T15:29:20.985Z,45.23
2018-04-25T15:30:19.452Z,46.84
2018-04-25T15:31:18.598Z,46.84
2018-04-25T15:32:18.882Z,46.94
2018-04-25T15:33:18.770Z,47.01
2018-04-25T15:34:19.728Z,48.07
2018-04-25T15:35:19.324Z,47.77
2018-04-25T15:36:19.365Z,48.83
2018-04-25T15:37:19.580Z,49.29
2018-04-25T15:38:19.911Z,50.46
2018-04-25T15:41:29.286Z,51.30
2018-04-25T15:42:37.352Z,51.59
2018-04-25T15:43:27.892Z,50.34
2018-04-25T15:46:12.937Z,50.29
2018-04-25T15:48:12.988Z,45.76
2018-04-25T15:49:13.135Z,44.43
2018-04-25T15:50:22.504Z,42.46
2018-04-25T15:51:15.981Z,42.11
2018-04-25T15:52:15.136Z,40.30
2018-04-25T15:55:30.022Z,38.28
2018-04-25T15:57:55.976Z,41.95
2018-04-25T15:58:59.103Z,43.37
2018-04-25T15:59:55.534Z,44.70
2018-04-25T16:00:54.492Z,45.15
2018-04-25T16:01:56.790Z,45.23
2018-04-25T16:02:55.892Z,46.38
2018-04-25T16:03:57.057Z,48.40
2018-04-25T16:05:06.258Z,47.51
2018-04-25T16:05:55.625Z,47.71
2018-04-25T16:06:56.539Z,47.32
2018-04-25T16:07:56.382Z,47.22
2018-04-25T16:08:56.039Z,45.42
2018-04-25T16:09:56.237Z,46.00
2018-04-25T16:10:56.707Z,46.09
2018-04-25T16:11:56.624Z,45.35
2018-04-25T16:12:57.025Z,44.51
2018-04-25T16:13:56.996Z,44.22
2018-04-25T16:14:57.470Z,43.54
2018-04-25T16:15:58.327Z,44.41
2018-04-25T16:16:57.546Z,43.07
2018-04-25T16:17:57.472Z,42.56
2018-04-25T16:18:57.892Z,41.79
2018-04-25T16:19:57.931Z,43.12
2018-04-25T16:20:58.107Z,43.31
2018-04-25T16:21:58.067Z,43.10
2018-04-25T16:23:03.696Z,44.44
2018-04-25T16:23:59.991Z,44.03
2018-04-25T16:24:59.456Z,45.47
2018-04-25T16:26:00.850Z,45.86
2018-04-25T16:26:59.597Z,45.78
2018-04-25T16:27:59.672Z,45.50
2018-04-25T16:29:00.140Z,44.56
2018-04-25T16:30:00.103Z,43.00
2018-04-25T16:30:59.964Z,43.12
2018-04-25T16:32:00.785Z,43.12
2018-04-25T16:33:00.373Z,43.43
2018-04-25T16:34:00.851Z,42.76
2018-04-25T16:35:01.157Z,41.60
2018-04-25T16:36:01.081Z,42.66
2018-04-25T16:37:01.335Z,43.07
2018-04-25T16:38:01.356Z,43.14
2018-04-25T16:39:01.649Z,42.93
2018-04-25T16:40:01.700Z,42.54
2018-04-25T16:41:01.793Z,42.61
2018-04-25T16:42:02.293Z,43.07
2018-04-25T16:43:02.414Z,43.65
2018-04-25T16:44:02.337Z,45.00
2018-04-25T16:45:02.543Z,45.09
2018-04-25T16:46:02.823Z,45.28
2018-04-25T16:47:02.918Z,45.28
2018-04-25T16:48:02.966Z,45.37
2018-04-25T16:49:03.175Z,45.64
2018-04-25T16:50:03.405Z,45.18
2018-04-25T16:51:03.678Z,46.03
2018-04-25T16:52:03.684Z,45.36
2018-04-25T16:53:03.797Z,45.36
2018-04-25T16:54:05.022Z,45.74
2018-04-25T16:55:04.463Z,46.03
2018-04-25T16:56:04.366Z,45.83
2018-04-25T16:57:04.749Z,45.54
2018-04-25T16:58:04.910Z,45.93
2018-04-25T16:59:05.068Z,46.70
2018-04-25T17:00:05.078Z,46.03
2018-04-25T17:01:19.145Z,45.74
2018-04-25T17:02:17.618Z,45.93
2018-04-25T17:03:08.605Z,45.52
2018-04-25T17:04:12.342Z,45.90
2018-04-25T17:05:10.064Z,46.12
2018-04-25T17:06:09.206Z,46.22
2018-04-25T17:07:10.768Z,46.31